Buford, Colorado
Current Conditions -  °F | °C
As of 8:53 PM on Saturday 24 Jan 2015 (Local Time) from KEEO Reporting Station
Overcast Overcast  
Wind Chill: 23°   Ceiling: 6000
Heat Index: 23°   Visibility: 10mi
Dew Point: 16°   Wind: 0mph
Humidity: 74%   Direction: NA
Pressure: 30.35"   Gusts: NA
Location:  40.0347°N, 107.628°W
Report Text: KEEO 250353Z AUTO 00000KT 10SM FEW042 OVC060 M05/M09 A3035 RMK AO2 SLP339 T10501089
Loading
Personal Weather Stations






























Interactive Weather Map New forecast layout! Learn more

10-Day Weather Forecast

Advertisements
Track Severe Weather on mobile